^^
Grace C. Lehan Memorial Weather Station Historical Data
Daily Summary for May 23, 2022 Units:  Metric    English   Both
Daily Weekly Monthly Yearly
  High: Low: Average:
Temperature: 23.3 °C 15.8 °C 19.3 °C
Dew Point: 18.2 °C 8.7 °C 11.8 °C
Humidity: 92.6% 40% 64%
Wind Speed: 8km/h 0km/h 2.7km/h
Wind Gust: 33.8km/h - -
Wind- - SW
Pressure: 1021.6 hPa 1015.1 hPa -
Precipitation: 0 mm    
 
 
Tabular Data for May 23, 2022
Time Temperature Dew Point Pressure Wind Wind Speed Wind Gust Humidity Rainfall Rate (Hourly) solar
00:09 19.5 °C 18.2 °C 1015.1 hPa NW 0.6 km/h 6.4 km/h 92% 0 mm 0 W/m2
00:14 19.3 °C 18 °C 1015.1 hPa NW 1 km/h 9.7 km/h 92% 0 mm 0 W/m2
00:19 19.2 °C 17.9 °C 1015.1 hPa Calm   9.7 km/h 92% 0 mm 0 W/m2
00:24 19.2 °C 17.9 °C 1015.1 hPa Calm   9.7 km/h 92.6% 0 mm 0 W/m2
00:29 19.1 °C 17.8 °C 1015.1 hPa Calm   9.7 km/h 92.3% 0 mm 0 W/m2
00:34 19.1 °C 17.7 °C 1015.1 hPa NW 0.5 km/h 9.7 km/h 92% 0 mm 0 W/m2
00:39 19 °C 17.7 °C 1015.5 hPa NW 0.3 km/h 4.8 km/h 92% 0 mm 0 W/m2
00:44 18.9 °C 17.7 °C 1015.5 hPa NW 2.7 km/h 9.7 km/h 92.4% 0 mm 0 W/m2
00:49 18.8 °C 17.5 °C 1015.5 hPa WNW 5.5 km/h 19.3 km/h 92% 0 mm 0 W/m2
00:54 18.7 °C 17.3 °C 1015.5 hPa NW 5.1 km/h 27.4 km/h 91.7% 0 mm 0 W/m2
00:59 18.5 °C 17.1 °C 1015.5 hPa NNW 4.5 km/h 27.4 km/h 91% 0 mm 0 W/m2
01:04 18.4 °C 16.8 °C 1015.8 hPa NW 4 km/h 27.4 km/h 90.4% 0 mm 0 W/m2
01:09 18.3 °C 16.7 °C 1015.8 hPa NW 1.4 km/h 17.7 km/h 90% 0 mm 0 W/m2
01:14 18.3 °C 16.7 °C 1015.8 hPa Calm   17.7 km/h 90% 0 mm 0 W/m2
01:19 18.3 °C 16.8 °C 1015.8 hPa West 2.7 km/h 17.7 km/h 90.9% 0 mm 0 W/m2
01:24 18.2 °C 16.6 °C 1015.8 hPa West 2.9 km/h 17.7 km/h 90.1% 0 mm 0 W/m2
01:29 18.2 °C 16.7 °C 1015.8 hPa WNW 3.7 km/h 17.7 km/h 90.7% 0 mm 0 W/m2
01:34 18.1 °C 16.5 °C 1015.8 hPa WNW 1 km/h 17.7 km/h 90% 0 mm 0 W/m2
01:39 18.1 °C 16.4 °C 1015.8 hPa NNW 1.8 km/h 9.7 km/h 90% 0 mm 0 W/m2
01:44 18 °C 16.3 °C 1015.8 hPa NNW 5 km/h 19.3 km/h 90% 0 mm 0 W/m2
01:49 18 °C 16.3 °C 1016.1 hPa WNW 3.2 km/h 19.3 km/h 90% 0 mm 0 W/m2
01:54 17.9 °C 16.3 °C 1016.1 hPa WNW 3.4 km/h 19.3 km/h 90% 0 mm 0 W/m2
01:59 17.9 °C 16.2 °C 1016.1 hPa WNW 2.4 km/h 19.3 km/h 90% 0 mm 0 W/m2
02:04 17.8 °C 16.1 °C 1016.1 hPa NW 2.9 km/h 19.3 km/h 89.4% 0 mm 0 W/m2
02:09 17.8 °C 15.9 °C 1016.1 hPa WNW 3.1 km/h 12.9 km/h 89% 0 mm 0 W/m2
02:14 17.7 °C 15.9 °C 1016.1 hPa WNW 2.1 km/h 12.9 km/h 89% 0 mm 0 W/m2
02:19 17.7 °C 15.8 °C 1016.1 hPa WNW 1.3 km/h 19.3 km/h 89% 0 mm 0 W/m2
02:24 17.7 °C 15.8 °C 1016.1 hPa WNW 4.3 km/h 19.3 km/h 89% 0 mm 0 W/m2
02:29 17.6 °C 15.6 °C 1016.1 hPa NW 3.4 km/h 22.5 km/h 88% 0 mm 0 W/m2
02:34 17.5 °C 15.6 °C 1016.1 hPa WNW 1.1 km/h 22.5 km/h 88.3% 0 mm 0 W/m2
02:36 17.5 °C 15.4 °C 1016.1 hPa Calm   8 km/h 87.4% 0 mm 0 W/m2
03:00 17.4 °C 15.1 °C 1016.5 hPa NW 1.6 km/h 20.9 km/h 86% 0 mm 0 W/m2
03:30 17.1 °C 14.2 °C 1016.8 hPa NW 3.2 km/h 27.4 km/h 83% 0 mm 0 W/m2
04:04 16.8 °C 13.9 °C 1016.8 hPa WNW 1.3 km/h 4.8 km/h 83% 0 mm 0 W/m2
04:09 16.8 °C 13.9 °C 1016.8 hPa NW 1.6 km/h 9.7 km/h 83.1% 0 mm 0 W/m2
04:14 16.7 °C 13.9 °C 1016.8 hPa NW 2.4 km/h 16.1 km/h 83.7% 0 mm 0 W/m2
04:19 16.7 °C 13.9 °C 1017.2 hPa NW 4 km/h 16.1 km/h 83.3% 0 mm 0 W/m2
04:24 16.7 °C 13.9 °C 1016.8 hPa NW 1.8 km/h 16.1 km/h 83.9% 0 mm 0 W/m2
04:29 16.7 °C 13.8 °C 1016.8 hPa NW 4.2 km/h 17.7 km/h 83.1% 0 mm 0 W/m2
04:34 16.6 °C 13.7 °C 1016.8 hPa WNW 2.9 km/h 17.7 km/h 83% 0 mm 0 W/m2
04:39 16.6 °C 13.7 °C 1017.2 hPa NW 1.4 km/h 14.5 km/h 83% 0 mm 0 W/m2
04:44 16.5 °C 13.6 °C 1017.2 hPa NW 4.3 km/h 14.5 km/h 83% 0 mm 0 W/m2
04:49 16.4 °C 13.6 °C 1017.2 hPa NW 1.4 km/h 14.5 km/h 83% 0 mm 0 W/m2
04:54 16.4 °C 13.6 °C 1017.5 hPa WNW 2.4 km/h 14.5 km/h 83% 0 mm 0 W/m2
04:59 16.4 °C 13.6 °C 1017.5 hPa NW 1.6 km/h 14.5 km/h 83% 0 mm 0 W/m2
05:04 16.4 °C 13.6 °C 1017.5 hPa NW 2.7 km/h 14.5 km/h 83% 0 mm 0 W/m2
05:09 16.4 °C 13.4 °C 1017.5 hPa WNW 3.2 km/h 16.1 km/h 82.3% 0 mm 0 W/m2
05:14 16.4 °C 13.4 °C 1017.5 hPa NW 2.3 km/h 19.3 km/h 82% 0 mm 0 W/m2
05:19 16.5 °C 13.3 °C 1017.5 hPa NW 0.6 km/h 19.3 km/h 81.6% 0 mm 0 W/m2
05:24 16.5 °C 13.3 °C 1017.8 hPa NW 1.1 km/h 19.3 km/h 81.4% 0 mm 0 W/m2
05:29 16.6 °C 13.3 °C 1017.8 hPa NW 0.6 km/h 19.3 km/h 81% 0 mm 0 W/m2
05:34 16.6 °C 13.1 °C 1018.2 hPa NW 1.6 km/h 19.3 km/h 80.1% 0 mm 9 W/m2
05:39 16.6 °C 13.1 °C 1018.2 hPa NW 1.9 km/h 17.7 km/h 79.8% 0 mm 14 W/m2
05:44 16.6 °C 12.9 °C 1018.2 hPa NNW 1.9 km/h 17.7 km/h 79% 0 mm 21 W/m2
05:49 16.5 °C 12.7 °C 1018.2 hPa WNW 2.9 km/h 17.7 km/h 78.1% 0 mm 23 W/m2
05:54 16.5 °C 12.4 °C 1018.2 hPa NNW 1.1 km/h 17.7 km/h 77% 0 mm 28 W/m2
05:59 16.4 °C 12.4 °C 1018.5 hPa NNW 1.8 km/h 17.7 km/h 77.2% 0 mm 30 W/m2
06:04 16.4 °C 12.1 °C 1018.5 hPa NW 4.2 km/h 20.9 km/h 75.3% 0 mm 30 W/m2
06:09 16.4 °C 11.8 °C 1018.5 hPa WNW 3.1 km/h 20.9 km/h 74.4% 0 mm 30 W/m2
06:14 16.3 °C 11.4 °C 1018.5 hPa NW 5.3 km/h 24.1 km/h 72.3% 0 mm 28 W/m2
06:19 16.3 °C 10.6 °C 1018.8 hPa NW 4.3 km/h 24.1 km/h 69.1% 0 mm 30 W/m2
06:24 16.3 °C 10.5 °C 1018.8 hPa NW 1.8 km/h 24.1 km/h 68.7% 0 mm 40 W/m2
06:29 16.3 °C 10.4 °C 1019.2 hPa NW 1.8 km/h 24.1 km/h 68.4% 0 mm 46 W/m2
06:34 16.2 °C 10.2 °C 1019.2 hPa NW 3.5 km/h 24.1 km/h 67.5% 0 mm 58 W/m2
06:39 16.2 °C 10.2 °C 1019.2 hPa NNW 1.3 km/h 19.3 km/h 67.8% 0 mm 72 W/m2
06:44 16.2 °C 10.1 °C 1019.2 hPa NW 5.3 km/h 19.3 km/h 67.4% 0 mm 76 W/m2
06:49 16.1 °C 9.7 °C 1019.5 hPa NW 6.3 km/h 19.3 km/h 65.7% 0 mm 156 W/m2
06:54 16.1 °C 9.5 °C 1019.5 hPa NW 6.9 km/h 27.4 km/h 64.8% 0 mm 91 W/m2
06:59 16.1 °C 9.3 °C 1019.5 hPa NW 5.8 km/h 27.4 km/h 64.1% 0 mm 105 W/m2
07:04 15.9 °C 9.4 °C 1019.5 hPa NW 8 km/h 27.4 km/h 65% 0 mm 107 W/m2
07:09 15.8 °C 9.4 °C 1019.9 hPa NW 2.3 km/h 25.7 km/h 65.4% 0 mm 116 W/m2
07:14 15.8 °C 9.6 °C 1019.9 hPa NW 3.5 km/h 25.7 km/h 66.5% 0 mm 153 W/m2
07:19 15.8 °C 9.7 °C 1019.9 hPa NW 2.7 km/h 25.7 km/h 66.7% 0 mm 127 W/m2
07:24 15.8 °C 9.7 °C 1019.9 hPa NW 4 km/h 25.7 km/h 67% 0 mm 128 W/m2
07:29 15.8 °C 9.7 °C 1020.2 hPa NW 1.4 km/h 25.7 km/h 67% 0 mm 156 W/m2
07:34 15.9 °C 10 °C 1020.2 hPa NNW 1.3 km/h 25.7 km/h 68.1% 0 mm 422 W/m2
07:39 16.1 °C 10.1 °C 1020.2 hPa NNW 1.1 km/h 14.5 km/h 67.5% 0 mm 438 W/m2
07:44 16.4 °C 10.1 °C 1020.2 hPa NNW 3.7 km/h 16.1 km/h 66.2% 0 mm 237 W/m2
07:49 16.6 °C 10.2 °C 1020.2 hPa NW 2.4 km/h 16.1 km/h 66% 0 mm 367 W/m2
07:54 16.7 °C 10.2 °C 1020.2 hPa NNW 2.1 km/h 17.7 km/h 65.5% 0 mm 367 W/m2
07:59 16.7 °C 10.3 °C 1020.2 hPa Calm   17.7 km/h 65.8% 0 mm 503 W/m2
08:04 17.2 °C 10.6 °C 1020.2 hPa East 3.2 km/h 3.2 km/h 65% 0 mm 490 W/m2
08:09 17.3 °C 10.7 °C 1020.2 hPa NNW 1.8 km/h 16.1 km/h 65.3% 0 mm 490 W/m2
08:14 17.3 °C 10.6 °C 1020.2 hPa SW 1.9 km/h 25.7 km/h 64.4% 0 mm 515 W/m2
08:19 17.3 °C 10.7 °C 1020.5 hPa NNW 2.9 km/h 25.7 km/h 65.3% 0 mm 520 W/m2
08:24 17.5 °C 11 °C 1020.5 hPa NNW 3.7 km/h 25.7 km/h 65.7% 0 mm 541 W/m2
08:29 17.8 °C 11.2 °C 1020.5 hPa NW 1.9 km/h 25.7 km/h 65.3% 0 mm 548 W/m2
08:34 18 °C 11.2 °C 1020.5 hPa NW 2.1 km/h 25.7 km/h 64.4% 0 mm 580 W/m2
08:39 18.2 °C 11.5 °C 1020.9 hPa NW 4.7 km/h 19.3 km/h 65% 0 mm 603 W/m2
08:44 18.3 °C 11.6 °C 1020.9 hPa NNW 2.3 km/h 19.3 km/h 64.6% 0 mm 612 W/m2
08:49 18.5 °C 11.7 °C 1020.9 hPa North 3.4 km/h 29 km/h 64.7% 0 mm 599 W/m2
08:54 18.6 °C 11.7 °C 1020.9 hPa NNE 3.1 km/h 29 km/h 64.1% 0 mm 594 W/m2
08:59 18.6 °C 11.3 °C 1020.9 hPa NNW 2.9 km/h 29 km/h 63% 0 mm 671 W/m2
09:04 18.6 °C 11.4 °C 1021.2 hPa NNW 3.4 km/h 29 km/h 63.1% 0 mm 698 W/m2
09:09 18.8 °C 11.8 °C 1021.2 hPa NNW 1.8 km/h 22.5 km/h 63.9% 0 mm 679 W/m2
09:14 18.9 °C 11.5 °C 1021.2 hPa NE 1.1 km/h 22.5 km/h 61.9% 0 mm 668 W/m2
09:19 18.9 °C 10.9 °C 1021.2 hPa NNE 1.9 km/h 22.5 km/h 60% 0 mm 638 W/m2
09:24 18.7 °C 11 °C 1021.2 hPa ENE 1.8 km/h 22.5 km/h 60.8% 0 mm 712 W/m2
09:29 18.7 °C 10.9 °C 1021.2 hPa ENE 3.2 km/h 22.5 km/h 60.4% 0 mm 738 W/m2
09:34 18.7 °C 11.3 °C 1021.2 hPa ENE 2.6 km/h 22.5 km/h 62% 0 mm 761 W/m2
09:39 18.7 °C 11.2 °C 1021.2 hPa NNE 3.1 km/h 17.7 km/h 61.4% 0 mm 758 W/m2
09:44 18.9 °C 11.4 °C 1021.2 hPa NW 2.6 km/h 22.5 km/h 62.1% 0 mm 749 W/m2
09:49 19 °C 11.4 °C 1021.2 hPa NNW 2.7 km/h 22.5 km/h 61.2% 0 mm 805 W/m2
09:54 19.3 °C 11.6 °C 1021.2 hPa NW 2.6 km/h 22.5 km/h 60.8% 0 mm 805 W/m2
09:59 19.6 °C 11.3 °C 1021.2 hPa NW 5.5 km/h 22.5 km/h 58.8% 0 mm 837 W/m2
10:04 19.9 °C 11.5 °C 1021.2 hPa NW 3.1 km/h 22.5 km/h 58.4% 0 mm 837 W/m2
10:09 20.2 °C 11.6 °C 1021.2 hPa NNW 3.9 km/h 19.3 km/h 57.7% 0 mm 860 W/m2
10:14 20.3 °C 11.2 °C 1021.2 hPa ENE 2.4 km/h 19.3 km/h 56.1% 0 mm 861 W/m2
10:19 20.1 °C 11.5 °C 1021.2 hPa WNW 1.6 km/h 19.3 km/h 57.5% 0 mm 861 W/m2
10:24 20.4 °C 12.1 °C 1021.2 hPa NNW 1.1 km/h 19.3 km/h 59% 0 mm 837 W/m2
10:29 20.5 °C 11.6 °C 1021.2 hPa NNW 1.1 km/h 19.3 km/h 56.8% 0 mm 842 W/m2
10:34 20.3 °C 11 °C 1021.2 hPa East 4.2 km/h 19.3 km/h 54.9% 0 mm 895 W/m2
10:39 20.2 °C 10.8 °C 1021.2 hPa ENE 3.1 km/h 11.3 km/h 54.8% 0 mm 881 W/m2
10:44 19.9 °C 10.4 °C 1021.2 hPa ENE 1.8 km/h 11.3 km/h 54.1% 0 mm 919 W/m2
10:49 20 °C 10.7 °C 1021.2 hPa North 4.5 km/h 20.9 km/h 54.8% 0 mm 925 W/m2
10:54 20.4 °C 10.7 °C 1021.2 hPa ENE 1.9 km/h 20.9 km/h 53.6% 0 mm 928 W/m2
10:59 20.6 °C 10.6 °C 1021.2 hPa ENE 3.7 km/h 20.9 km/h 52.6% 0 mm 932 W/m2
11:04 20.6 °C 10.8 °C 1021.6 hPa NNW 1.3 km/h 20.9 km/h 53.1% 0 mm 933 W/m2
11:09 20.9 °C 11 °C 1021.2 hPa NNW 4.3 km/h 30.6 km/h 53.2% 0 mm 946 W/m2
11:14 21.2 °C 10.7 °C 1021.2 hPa NW 3.2 km/h 30.6 km/h 51% 0 mm 947 W/m2
11:19 21.3 °C 10.2 °C 1021.2 hPa NNW 4.5 km/h 30.6 km/h 49.4% 0 mm 944 W/m2
11:24 21.3 °C 10.6 °C 1021.6 hPa NNW 2.9 km/h 30.6 km/h 50.3% 0 mm 956 W/m2
11:29 21.3 °C 9.9 °C 1021.2 hPa NE 3.9 km/h 30.6 km/h 48.3% 0 mm 954 W/m2
11:34 21.1 °C 9.8 °C 1021.2 hPa NNW 6 km/h 33.8 km/h 48.5% 0 mm 951 W/m2
11:39 21.1 °C 9.8 °C 1021.2 hPa NE 2.3 km/h 33.8 km/h 48.7% 0 mm 965 W/m2
11:44 21.1 °C 10.2 °C 1021.2 hPa NNW 3.7 km/h 33.8 km/h 49.5% 0 mm 953 W/m2
11:49 21.2 °C 10.2 °C 1020.9 hPa NNE 1.9 km/h 33.8 km/h 49.2% 0 mm 942 W/m2
11:54 21.2 °C 9.7 °C 1021.2 hPa NE 2.9 km/h 33.8 km/h 47.8% 0 mm 976 W/m2
11:59 21.2 °C 10.1 °C 1020.9 hPa NE 2.6 km/h 33.8 km/h 49% 0 mm 967 W/m2
12:00 21.2 °C 10.4 °C 1020.9 hPa Calm   33.8 km/h 50% 0 mm 923 W/m2
12:09 21.4 °C 10.5 °C 1020.9 hPa ENE 1.3 km/h 9.7 km/h 49.6% 0 mm 919 W/m2
12:14 21.5 °C 10.2 °C 1020.9 hPa NNW 3.9 km/h 19.3 km/h 48.6% 0 mm 944 W/m2
12:19 21.7 °C 10.2 °C 1020.9 hPa NW 2.1 km/h 19.3 km/h 48.1% 0 mm 967 W/m2
12:24 21.8 °C 10.8 °C 1020.9 hPa NW 3.2 km/h 19.3 km/h 49.5% 0 mm 965 W/m2
12:29 21.9 °C 10.4 °C 1020.9 hPa NW 4 km/h 22.5 km/h 48.2% 0 mm 991 W/m2
12:34 21.8 °C 10.2 °C 1020.9 hPa NNW 3.9 km/h 22.5 km/h 47.7% 0 mm 1011 W/m2
12:39 21.8 °C 9.9 °C 1020.9 hPa ENE 6 km/h 19.3 km/h 46.7% 0 mm 1011 W/m2
12:44 21.7 °C 9.4 °C 1020.9 hPa NE 4.8 km/h 19.3 km/h 45.5% 0 mm 991 W/m2
12:49 21.7 °C 9.7 °C 1020.9 hPa NE 4 km/h 19.3 km/h 46.4% 0 mm 967 W/m2
12:54 21.8 °C 9.8 °C 1020.9 hPa NNE 3.7 km/h 19.3 km/h 46.7% 0 mm 998 W/m2
12:59 21.7 °C 9.2 °C 1020.9 hPa ENE 4.5 km/h 19.3 km/h 44.8% 0 mm 986 W/m2
13:04 21.6 °C 9.7 °C 1020.9 hPa ENE 3.1 km/h 19.3 km/h 46.6% 0 mm 981 W/m2
13:09 21.7 °C 9.8 °C 1020.5 hPa ENE 1.8 km/h 16.1 km/h 47% 0 mm 1004 W/m2
13:14 21.7 °C 9.8 °C 1020.5 hPa East 2.6 km/h 16.1 km/h 46.6% 0 mm 988 W/m2
13:19 21.8 °C 10.2 °C 1020.5 hPa ENE 2.7 km/h 16.1 km/h 47.4% 0 mm 974 W/m2
13:24 21.9 °C 9.9 °C 1020.5 hPa NNW 1.9 km/h 16.1 km/h 46.3% 0 mm 942 W/m2
13:29 22.1 °C 9.9 °C 1020.5 hPa NNE 6.3 km/h 16.1 km/h 45.9% 0 mm 965 W/m2
13:34 22.2 °C 9.7 °C 1020.5 hPa NNE 2.1 km/h 16.1 km/h 45% 0 mm 958 W/m2
13:39 22.2 °C 9.9 °C 1020.5 hPa NNE 1.4 km/h 16.1 km/h 45.8% 0 mm 993 W/m2
13:44 22.2 °C 10.4 °C 1020.5 hPa ENE 3.4 km/h 16.1 km/h 47.3% 0 mm 993 W/m2
13:49 22.3 °C 10.2 °C 1020.5 hPa NNW 3.5 km/h 16.1 km/h 46.3% 0 mm 956 W/m2
13:54 22.4 °C 10.2 °C 1020.2 hPa NNW 1.3 km/h 16.1 km/h 45.8% 0 mm 935 W/m2
13:59 22.5 °C 10.5 °C 1020.2 hPa ENE 2.6 km/h 16.1 km/h 46.6% 0 mm 925 W/m2
14:04 22.7 °C 9.9 °C 1020.2 hPa ENE 2.1 km/h 16.1 km/h 44.5% 0 mm 923 W/m2
14:09 22.6 °C 9.6 °C 1020.2 hPa ENE 2.6 km/h 14.5 km/h 43.6% 0 mm 919 W/m2
14:14 22.6 °C 9.6 °C 1020.2 hPa NE 2.4 km/h 14.5 km/h 43.5% 0 mm 932 W/m2
14:19 22.7 °C 9.6 °C 1020.2 hPa ENE 4.8 km/h 17.7 km/h 43.4% 0 mm 937 W/m2
14:24 22.7 °C 10 °C 1020.2 hPa ENE 3.4 km/h 24.1 km/h 44.6% 0 mm 925 W/m2
14:29 22.6 °C 9.9 °C 1020.2 hPa NE 3.7 km/h 24.1 km/h 44.3% 0 mm 925 W/m2
14:34 22.7 °C 9.9 °C 1020.2 hPa NNW 2.3 km/h 24.1 km/h 44.4% 0 mm 875 W/m2
14:39 22.7 °C 10.3 °C 1020.2 hPa NNE 2.6 km/h 9.7 km/h 45.3% 0 mm 860 W/m2
14:43 22.9 °C 10.6 °C 1020.2 hPa NW 1.6 km/h 9.7 km/h 45.6% 0 mm 872 W/m2
14:49 23.1 °C 10.3 °C 1019.9 hPa NNE 3.2 km/h 11.3 km/h 44.3% 0 mm 879 W/m2
14:54 23.2 °C 9.6 °C 1020.2 hPa ENE 2.7 km/h 11.3 km/h 42% 0 mm 881 W/m2
14:59 23.2 °C 9.6 °C 1020.2 hPa NE 3.1 km/h 16.1 km/h 42% 0 mm 881 W/m2
15:04 23.1 °C 9.7 °C 1020.2 hPa ENE 2.6 km/h 16.1 km/h 42.6% 0 mm 840 W/m2
15:09 22.9 °C 9.5 °C 1020.2 hPa East 1.9 km/h 8 km/h 42.5% 0 mm 863 W/m2
15:14 22.8 °C 10.1 °C 1019.9 hPa North 2.3 km/h 9.7 km/h 44.4% 0 mm 846 W/m2
15:19 22.9 °C 10 °C 1019.9 hPa NE 1.9 km/h 9.7 km/h 44% 0 mm 749 W/m2
15:24 23 °C 10 °C 1019.9 hPa NNE 1.6 km/h 9.7 km/h 43.7% 0 mm 747 W/m2
15:29 23.1 °C 9.9 °C 1019.9 hPa NNW 1.6 km/h 9.7 km/h 43.3% 0 mm 666 W/m2
15:34 23.1 °C 9.3 °C 1019.9 hPa NE 1.1 km/h 9.7 km/h 41.6% 0 mm 726 W/m2
15:39 23.1 °C 9.4 °C 1019.9 hPa ENE 3.7 km/h 11.3 km/h 41.8% 0 mm 726 W/m2
15:44 23.2 °C 9.3 °C 1019.9 hPa NE 3.5 km/h 17.7 km/h 41.3% 0 mm 668 W/m2
15:49 23.2 °C 9.4 °C 1019.5 hPa NNE 2.3 km/h 17.7 km/h 41.8% 0 mm 721 W/m2
15:54 23.2 °C 9.7 °C 1019.9 hPa ENE 2.9 km/h 17.7 km/h 42.3% 0 mm 759 W/m2
15:59 23.3 °C 9.3 °C 1019.9 hPa ENE 2.4 km/h 17.7 km/h 41.1% 0 mm 759 W/m2
16:00 23.2 °C 8.9 °C 1019.5 hPa ENE 3.2 km/h 17.7 km/h 40% 0 mm 573 W/m2
16:09 23.1 °C 9.5 °C 1019.5 hPa ENE 1.3 km/h 6.4 km/h 42% 0 mm 459 W/m2
16:14 23.1 °C 8.8 °C 1019.5 hPa East 2.1 km/h 8 km/h 40.2% 0 mm 142 W/m2
16:19 22.9 °C 8.9 °C 1019.5 hPa ENE 1.9 km/h 9.7 km/h 40.7% 0 mm 149 W/m2
16:24 22.9 °C 8.7 °C 1019.5 hPa NE 2.7 km/h 11.3 km/h 40.5% 0 mm 174 W/m2
16:28 22.8 °C 8.7 °C 1019.5 hPa NNE 0.5 km/h 11.3 km/h 40.4% 0 mm 192 W/m2
Hartford County Weather
Compliments of Weather Underground - 4 mb